TimeCST,TemperatureF,Dew PointF,Humidity,Sea Level PressureIn,VisibilityMPH,Wind Direction,Wind SpeedMPH,Gust SpeedMPH,PrecipitationIn,Events,Conditions,WindDirDegrees,DateUTC
12:13 AM,6.8,1.4,79,30.25,10.0,NW,9.2,-,N/A,,Clear,310,2013-01-14 06:13:00
12:26 AM,6.8,1.4,79,30.25,10.0,NW,5.8,-,N/A,,Clear,310,2013-01-14 06:26:00
12:53 AM,5.0,-0.4,78,30.26,10.0,WNW,6.9,-,N/A,,Clear,300,2013-01-14 06:53:00
1:13 AM,3.2,-0.4,85,30.26,10.0,NW,8.1,-,N/A,,Clear,310,2013-01-14 07:13:00
1:33 AM,3.2,-2.2,78,30.26,10.0,North,-9999.0,-,N/A,,Clear,0,2013-01-14 07:33:00
1:54 AM,3.2,-2.2,78,30.26,10.0,WNW,9.2,-,N/A,,Clear,300,2013-01-14 07:54:00
2:13 AM,3.2,-2.2,78,30.26,10.0,WNW,6.9,-,N/A,,Clear,300,2013-01-14 08:13:00
2:53 AM,1.4,-4.0,78,30.29,10.0,WNW,5.8,-,N/A,,Clear,290,2013-01-14 08:53:00
3:13 AM,1.4,-4.0,78,30.29,10.0,WNW,5.8,-,N/A,,Clear,290,2013-01-14 09:13:00
3:33 AM,-0.4,-4.0,85,30.29,10.0,WNW,6.9,-,N/A,,Clear,290,2013-01-14 09:33:00
3:53 AM,-0.4,-5.8,78,30.29,10.0,WNW,6.9,-,N/A,,Clear,290,2013-01-14 09:53:00
4:13 AM,-0.4,-5.8,78,30.30,10.0,West,6.9,-,N/A,,Clear,270,2013-01-14 10:13:00
4:33 AM,-0.4,-5.8,78,30.30,10.0,West,8.1,-,N/A,,Clear,270,2013-01-14 10:33:00
4:53 AM,-0.4,-5.8,78,30.30,10.0,West,5.8,-,N/A,,Clear,270,2013-01-14 10:53:00
5:13 AM,-2.2,-7.6,78,30.31,10.0,WSW,5.8,-,N/A,,Clear,250,2013-01-14 11:13:00
5:33 AM,-2.2,-5.8,85,30.31,10.0,West,6.9,-,N/A,,Clear,270,2013-01-14 11:33:00
5:53 AM,-2.2,-7.6,78,30.31,10.0,West,5.8,-,N/A,,Clear,260,2013-01-14 11:53:00
6:14 AM,-2.2,-7.6,78,30.32,10.0,West,5.8,-,N/A,,Clear,270,2013-01-14 12:14:00
6:33 AM,-2.2,-7.6,78,30.33,10.0,West,3.5,-,N/A,,Clear,260,2013-01-14 12:33:00
6:54 AM,-4.0,-7.6,85,30.34,10.0,WSW,5.8,-,N/A,,Clear,250,2013-01-14 12:54:00
7:13 AM,-4.0,-7.6,85,30.35,10.0,WSW,5.8,-,N/A,,Clear,250,2013-01-14 13:13:00
7:33 AM,-4.0,-7.6,85,30.35,10.0,WSW,4.6,-,N/A,,Clear,250,2013-01-14 13:33:00
7:53 AM,-4.0,-7.6,85,30.36,10.0,WSW,5.8,-,N/A,,Clear,250,2013-01-14 13:53:00
8:13 AM,-4.0,-7.6,85,30.36,10.0,WSW,4.6,-,N/A,,Clear,250,2013-01-14 14:13:00
8:34 AM,-4.0,-7.6,85,30.37,10.0,Calm,Calm,-,N/A,,Clear,0,2013-01-14 14:34:00
8:53 AM,-2.2,-5.8,85,30.37,10.0,SSW,3.5,-,N/A,,Clear,210,2013-01-14 14:53:00
9:13 AM,-0.4,-5.8,78,30.38,10.0,SSW,4.6,-,N/A,,Clear,210,2013-01-14 15:13:00
9:33 AM,1.4,-5.8,72,30.39,10.0,SW,5.8,-,N/A,,Clear,230,2013-01-14 15:33:00
9:53 AM,1.4,-5.8,72,30.39,10.0,WSW,5.8,-,N/A,,Clear,240,2013-01-14 15:53:00
10:14 AM,3.2,-4.0,72,30.40,10.0,WSW,6.9,-,N/A,,Clear,250,2013-01-14 16:14:00
10:33 AM,3.2,-2.2,78,30.40,10.0,West,6.9,-,N/A,,Clear,260,2013-01-14 16:33:00
10:53 AM,3.2,-2.2,78,30.39,10.0,WSW,4.6,-,N/A,,Clear,250,2013-01-14 16:53:00
11:14 AM,5.0,-2.2,72,30.39,10.0,Calm,Calm,-,N/A,,Clear,0,2013-01-14 17:14:00
11:33 AM,6.8,-2.2,67,30.37,10.0,Calm,Calm,-,N/A,,Clear,0,2013-01-14 17:33:00
11:53 AM,8.6,-0.4,67,30.36,10.0,SSW,3.5,-,N/A,,Clear,210,2013-01-14 17:53:00
12:13 PM,8.6,-0.4,67,30.36,10.0,South,4.6,-,N/A,,Clear,180,2013-01-14 18:13:00
12:34 PM,8.6,-0.4,67,30.35,10.0,South,4.6,-,N/A,,Clear,180,2013-01-14 18:34:00
12:54 PM,8.6,-0.4,67,30.33,10.0,Calm,Calm,-,N/A,,Clear,0,2013-01-14 18:54:00
1:13 PM,10.4,-0.4,62,30.32,10.0,South,4.6,-,N/A,,Clear,170,2013-01-14 19:13:00
1:33 PM,8.6,-0.4,67,30.31,10.0,South,4.6,-,N/A,,Clear,170,2013-01-14 19:33:00
1:53 PM,10.4,1.4,67,30.31,10.0,SSE,6.9,-,N/A,,Clear,150,2013-01-14 19:53:00
2:13 PM,8.6,1.4,73,30.31,10.0,SSE,5.8,-,N/A,,Mostly Cloudy,160,2013-01-14 20:13:00
2:54 PM,8.6,1.4,73,30.30,10.0,SSE,5.8,-,N/A,,Mostly Cloudy,160,2013-01-14 20:54:00
3:14 PM,10.4,1.4,67,30.30,10.0,SE,8.1,-,N/A,,Mostly Cloudy,140,2013-01-14 21:14:00
3:33 PM,10.4,1.4,67,30.30,10.0,SSE,8.1,-,N/A,,Mostly Cloudy,150,2013-01-14 21:33:00
4:33 PM,10.4,3.2,73,30.29,10.0,SE,6.9,-,N/A,,Overcast,140,2013-01-14 22:33:00
4:53 PM,10.4,3.2,73,30.28,10.0,SSE,8.1,-,N/A,,Overcast,150,2013-01-14 22:53:00
5:13 PM,10.4,3.2,73,30.28,10.0,SE,6.9,-,N/A,,Overcast,140,2013-01-14 23:13:00
5:33 PM,10.4,3.2,73,30.28,10.0,SSE,9.2,-,N/A,,Overcast,150,2013-01-14 23:33:00
5:54 PM,10.4,3.2,73,30.27,10.0,SSE,9.2,-,N/A,,Overcast,150,2013-01-14 23:54:00
6:13 PM,10.4,3.2,73,30.27,10.0,SSE,8.1,-,N/A,,Overcast,150,2013-01-15 00:13:00
6:33 PM,10.4,3.2,73,30.27,10.0,SSE,6.9,-,N/A,,Overcast,150,2013-01-15 00:33:00
6:54 PM,10.4,3.2,73,30.27,10.0,SSE,5.8,-,N/A,,Overcast,150,2013-01-15 00:54:00
7:13 PM,10.4,3.2,73,30.26,10.0,SSE,9.2,-,N/A,,Overcast,150,2013-01-15 01:13:00
7:33 PM,10.4,3.2,73,30.26,10.0,SSE,6.9,-,N/A,,Overcast,150,2013-01-15 01:33:00
7:53 PM,10.4,3.2,73,30.24,10.0,SE,6.9,-,N/A,,Mostly Cloudy,140,2013-01-15 01:53:00
8:14 PM,8.6,3.2,79,30.24,10.0,SE,4.6,-,N/A,,Scattered Clouds,140,2013-01-15 02:14:00
8:33 PM,8.6,3.2,79,30.25,10.0,SSE,4.6,-,N/A,,Scattered Clouds,150,2013-01-15 02:33:00
8:53 PM,8.6,3.2,79,30.24,10.0,SSE,3.5,-,N/A,,Clear,150,2013-01-15 02:53:00
9:14 PM,6.8,3.2,85,30.24,10.0,South,3.5,-,N/A,,Clear,170,2013-01-15 03:14:00
9:34 PM,8.6,3.2,79,30.23,10.0,South,4.6,-,N/A,,Clear,190,2013-01-15 03:34:00
9:53 PM,6.8,3.2,85,30.23,10.0,South,4.6,-,N/A,,Clear,190,2013-01-15 03:53:00
10:13 PM,6.8,1.4,79,30.23,10.0,South,4.6,-,N/A,,Clear,190,2013-01-15 04:13:00
10:33 PM,6.8,1.4,79,30.23,10.0,SSW,4.6,-,N/A,,Clear,210,2013-01-15 04:33:00
10:53 PM,6.8,1.4,79,30.23,10.0,SW,5.8,-,N/A,,Clear,220,2013-01-15 04:53:00
11:14 PM,6.8,1.4,79,30.23,10.0,SSW,4.6,-,N/A,,Clear,210,2013-01-15 05:14:00
11:33 PM,5.0,1.4,85,30.23,10.0,SW,5.8,-,N/A,,Mostly Cloudy,230,2013-01-15 05:33:00
11:53 PM,6.8,3.2,85,30.23,10.0,WSW,5.8,-,N/A,,Overcast,240,2013-01-15 05:53:00